Time;durP1;ratioP1;P1;durP2;ratioP2;P2;SDS_P1;SDS_P2;PMS_P1;PMS_P2;Temp;Humidity;BMP_temperature;BMP_pressure;BME280_temperature;BME280_humidity;BME280_pressure;Samples;Min_cycle;Max_cycle;Signal;HPM_P1;HPM_P2
2023/01/16 00:00:42;;;;;;;3.10;1.60;;;5.10;80.50;;;;;;5048351;28;20213;-88
2023/01/16 00:03:08;;;;;;;2.47;1.70;;;5.20;79.70;;;;;;5036069;28;20781;-88
2023/01/16 00:05:33;;;;;;;2.43;1.57;;;5.10;80.70;;;;;;5038028;28;20185;-88
2023/01/16 00:07:59;;;;;;;3.03;1.60;;;5.10;80.70;;;;;;5053360;28;20208;-89
2023/01/16 00:10:24;;;;;;;3.27;1.73;;;5.20;79.30;;;;;;5039966;28;20729;-88
2023/01/16 00:12:50;;;;;;;4.73;1.53;;;5.20;78.80;;;;;;5041944;28;20176;-89
2023/01/16 00:15:16;;;;;;;3.37;1.47;;;5.20;78.90;;;;;;5051116;28;20223;-88
2023/01/16 00:17:41;;;;;;;6.37;1.90;;;5.00;79.00;;;;;;5035713;28;20251;-89
2023/01/16 00:20:08;;;;;;;3.00;1.50;;;5.00;79.00;;;;;;5036115;28;20181;-88
2023/01/16 00:22:34;;;;;;;3.33;1.60;;;5.00;79.00;;;;;;5034848;28;20177;-89
2023/01/16 00:24:59;;;;;;;3.77;1.50;;;5.10;78.50;;;;;;5035445;28;20245;-88
2023/01/16 00:27:25;;;;;;;1.80;1.70;;;5.00;79.00;;;;;;5035273;28;20268;-88
2023/01/16 00:29:50;;;;;;;2.87;1.60;;;4.90;80.50;;;;;;5051332;28;20219;-89
2023/01/16 00:32:16;;;;;;;3.40;1.67;;;4.90;79.00;;;;;;5055753;28;20212;-89
2023/01/16 00:34:41;;;;;;;2.30;1.50;;;4.90;79.50;;;;;;5054989;28;20431;-89
2023/01/16 00:37:07;;;;;;;2.37;1.80;;;4.90;79.90;;;;;;5055471;28;20216;-89
2023/01/16 00:39:33;;;;;;;2.43;1.70;;;4.90;79.30;;;;;;5049960;28;20592;-89
2023/01/16 00:42:05;;;;;;;3.50;1.90;;;4.90;79.40;;;;;;5041930;28;20192;-87
2023/01/16 00:44:30;;;;;;;5.10;1.80;;;4.90;79.50;;;;;;5040823;28;20180;-89
2023/01/16 00:46:56;;;;;;;2.30;1.73;;;4.90;79.70;;;;;;5046131;28;20208;-88
2023/01/16 00:49:21;;;;;;;1.73;1.60;;;4.90;78.50;;;;;;5040524;28;20284;-88
2023/01/16 00:51:47;;;;;;;6.60;1.50;;;4.90;78.80;;;;;;5035004;28;20297;-89
2023/01/16 00:54:13;;;;;;;1.40;1.30;;;5.00;78.00;;;;;;5034788;28;20733;-88
2023/01/16 00:56:38;;;;;;;2.77;1.60;;;4.90;78.60;;;;;;5045084;28;20196;-89
2023/01/16 00:59:04;;;;;;;3.67;1.80;;;4.90;78.70;;;;;;5053430;28;20199;-88
2023/01/16 01:01:30;;;;;;;2.67;1.70;;;4.90;79.40;;;;;;5038026;28;20189;-89
2023/01/16 01:03:57;;;;;;;3.83;1.67;;;4.90;79.40;;;;;;5046557;28;20243;-89
2023/01/16 01:06:22;;;;;;;2.10;1.70;;;4.90;78.60;;;;;;5043868;28;20218;-88
2023/01/16 01:08:48;;;;;;;4.40;1.80;;;4.90;79.40;;;;;;5045685;28;20189;-87
2023/01/16 01:11:14;;;;;;;4.47;1.90;;;5.00;78.30;;;;;;5035516;28;20211;-88
2023/01/16 01:13:40;;;;;;;3.73;1.50;;;5.00;77.30;;;;;;5034886;28;20582;-89
2023/01/16 01:16:07;;;;;;;5.17;1.90;;;5.00;77.50;;;;;;5042371;28;20197;-88
2023/01/16 01:18:33;;;;;;;1.73;1.50;;;5.00;78.60;;;;;;5045164;28;20310;-88
2023/01/16 01:20:59;;;;;;;2.97;1.53;;;5.00;78.50;;;;;;5049574;28;20182;-89
2023/01/16 01:23:25;;;;;;;3.43;1.87;;;5.00;78.00;;;;;;5037875;28;20192;-89
2023/01/16 01:25:52;;;;;;;3.37;1.43;;;5.00;78.20;;;;;;5055584;28;20180;-89
2023/01/16 01:28:18;;;;;;;4.07;1.90;;;5.00;79.00;;;;;;5053286;28;20181;-89
2023/01/16 01:30:43;;;;;;;2.53;1.60;;;5.00;78.60;;;;;;5038715;28;20181;-88
2023/01/16 01:33:09;;;;;;;3.40;1.43;;;5.10;78.20;;;;;;5048720;28;20207;-88
2023/01/16 01:35:36;;;;;;;4.83;1.83;;;5.00;78.60;;;;;;5040628;28;20188;-89
2023/01/16 01:38:01;;;;;;;3.80;1.80;;;5.10;78.50;;;;;;5041215;28;20790;-89
2023/01/16 01:40:27;;;;;;;5.67;1.70;;;5.00;78.40;;;;;;5040863;28;20248;-89
2023/01/16 01:42:53;;;;;;;2.57;1.47;;;5.10;79.20;;;;;;5049753;28;20207;-88
2023/01/16 01:45:23;;;;;;;3.07;1.40;;;5.00;79.10;;;;;;5044900;28;20230;-88
2023/01/16 01:47:54;;;;;;;3.10;1.50;;;5.10;79.40;;;;;;5062554;28;20216;-87
2023/01/16 01:50:26;;;;;;;3.33;1.70;;;5.10;78.80;;;;;;5056646;28;20289;-89
2023/01/16 01:52:52;;;;;;;2.43;1.90;;;5.10;79.30;;;;;;5044625;28;20196;-89
2023/01/16 01:55:21;;;;;;;3.40;1.53;;;5.00;79.70;;;;;;5049972;28;20950;-89
2023/01/16 01:57:54;;;;;;;3.17;1.50;;;5.00;79.50;;;;;;5056991;28;20203;-88
2023/01/16 02:00:23;;;;;;;4.37;1.77;;;5.00;79.50;;;;;;5023388;28;20184;-87
2023/01/16 02:03:05;;;;;;;2.67;1.87;;;5.00;80.00;;;;;;5048819;28;20192;-87
2023/01/16 02:05:38;;;;;;;4.50;1.67;;;5.00;79.80;;;;;;5035479;28;20173;-89
2023/01/16 02:08:06;;;;;;;1.33;1.10;;;5.00;80.40;;;;;;5037706;28;20205;-88
2023/01/16 02:10:46;;;;;;;3.47;1.77;;;5.00;80.20;;;;;;5036918;28;20288;-88
2023/01/16 02:13:12;;;;;;;2.67;1.67;;;5.00;80.50;;;;;;5040111;28;20184;-89
2023/01/16 02:19:14;;;;;;;2.93;1.40;;;5.10;80.50;;;;;;5057346;28;20188;-88
2023/01/16 02:21:26;;;;;;;3.37;1.43;;;5.00;81.50;;;;;;5047285;28;20207;-88
2023/01/16 02:24:22;;;;;;;2.07;1.53;;;5.00;81.40;;;;;;5056982;28;20184;-89
2023/01/16 02:27:25;;;;;;;3.97;1.53;;;5.00;82.00;;;;;;5060149;28;20650;-89
2023/01/16 02:30:16;;;;;;;3.53;1.60;;;4.90;82.30;;;;;;5043684;28;20271;-89
2023/01/16 02:33:05;;;;;;;4.83;1.53;;;5.00;82.40;;;;;;5039814;28;20693;-89
2023/01/16 02:35:45;;;;;;;2.13;1.40;;;5.00;83.10;;;;;;5037364;28;20188;-88
2023/01/16 02:38:38;;;;;;;3.83;1.50;;;5.10;81.90;;;;;;5053165;28;20176;-88
2023/01/16 02:41:20;;;;;;;2.63;1.70;;;5.10;81.70;;;;;;5056773;28;20184;-89
2023/01/16 02:43:55;;;;;;;3.00;1.53;;;5.20;82.00;;;;;;5057206;28;20612;-88
2023/01/16 02:46:32;;;;;;;2.10;1.40;;;5.20;81.40;;;;;;5044355;28;20200;-88
2023/01/16 02:49:10;;;;;;;1.73;1.40;;;5.10;81.60;;;;;;5076517;28;20280;-89
2023/01/16 02:51:49;;;;;;;4.63;1.70;;;5.20;82.00;;;;;;5036525;28;20246;-89
2023/01/16 02:54:38;;;;;;;3.13;1.77;;;5.20;81.10;;;;;;5036492;28;20483;-88
2023/01/16 02:57:12;;;;;;;3.23;1.63;;;5.30;80.30;;;;;;5055419;28;20219;-88
2023/01/16 02:59:40;;;;;;;3.70;1.80;;;5.20;80.30;;;;;;5040985;28;20185;-88
2023/01/16 03:02:06;;;;;;;2.63;1.70;;;5.30;80.10;;;;;;5042836;28;20195;-88
2023/01/16 03:05:01;;;;;;;2.43;1.53;;;5.30;80.40;;;;;;5055057;28;20188;-86
2023/01/16 03:07:48;;;;;;;3.80;1.60;;;5.20;79.80;;;;;;5047994;28;20358;-88
2023/01/16 03:10:48;;;;;;;3.33;1.60;;;5.30;79.60;;;;;;5054262;28;20569;-88
2023/01/16 03:13:31;;;;;;;3.93;1.70;;;5.30;79.50;;;;;;5053370;28;20264;-88
2023/01/16 03:16:02;;;;;;;2.33;1.50;;;5.30;79.20;;;;;;5037290;28;20165;-88
2023/01/16 03:18:33;;;;;;;3.13;1.63;;;5.40;79.00;;;;;;5039727;28;20205;-88
2023/01/16 03:20:58;;;;;;;2.47;1.80;;;5.30;79.40;;;;;;5055917;28;20179;-88
2023/01/16 03:23:45;;;;;;;2.00;1.40;;;5.30;77.30;;;;;;5043807;28;20177;-88
2023/01/16 03:26:14;;;;;;;3.63;1.60;;;5.40;77.30;;;;;;5035656;28;20286;-88
2023/01/16 03:28:45;;;;;;;1.70;1.60;;;5.40;78.40;;;;;;5036071;28;20547;-88
2023/01/16 03:31:13;;;;;;;2.50;1.57;;;5.40;76.90;;;;;;5055402;28;20216;-87
2023/01/16 03:33:46;;;;;;;4.60;2.10;;;5.40;78.30;;;;;;5055726;28;20180;-87
2023/01/16 03:36:30;;;;;;;2.77;1.77;;;5.40;76.60;;;;;;5051611;28;20204;-88
2023/01/16 03:38:58;;;;;;;2.43;1.47;;;5.40;76.60;;;;;;5025731;28;20173;-88
2023/01/16 03:41:27;;;;;;;2.60;1.70;;;5.30;77.40;;;;;;5036445;28;20181;-88
2023/01/16 03:44:00;;;;;;;3.17;1.73;;;5.40;77.70;;;;;;5041660;28;20245;-88
2023/01/16 03:46:41;;;;;;;1.97;1.53;;;5.40;77.40;;;;;;5057700;28;20226;-90
2023/01/16 03:49:15;;;;;;;5.17;1.83;;;5.40;76.80;;;;;;5075125;28;20182;-90
2023/01/16 03:51:59;;;;;;;1.27;1.17;;;5.40;76.70;;;;;;5062032;28;20215;-89
2023/01/16 03:54:43;;;;;;;3.17;1.40;;;5.40;76.90;;;;;;5053110;28;20195;-88
2023/01/16 03:57:25;;;;;;;2.97;1.53;;;5.40;77.00;;;;;;5045342;28;20805;-89
2023/01/16 03:59:52;;;;;;;5.07;1.80;;;5.40;77.80;;;;;;5050771;28;20184;-88
2023/01/16 04:02:20;;;;;;;2.57;1.80;;;5.40;77.60;;;;;;5037514;28;20184;-88
2023/01/16 04:04:54;;;;;;;2.00;1.50;;;5.40;78.00;;;;;;5037390;28;20189;-88
2023/01/16 04:07:29;;;;;;;5.73;1.63;;;5.40;77.80;;;;;;5037783;28;20192;-88
2023/01/16 04:09:57;;;;;;;1.77;1.47;;;5.40;78.00;;;;;;5036163;28;20179;-87
2023/01/16 04:12:27;;;;;;;2.23;1.30;;;5.40;77.90;;;;;;5034585;28;20748;-89
2023/01/16 04:14:58;;;;;;;3.17;1.50;;;5.40;78.00;;;;;;5036551;28;20188;-89
2023/01/16 04:17:24;;;;;;;2.93;1.73;;;5.40;78.20;;;;;;5038320;28;20220;-89
2023/01/16 04:19:50;;;;;;;2.17;1.47;;;5.40;77.70;;;;;;5040994;28;20157;-88
2023/01/16 04:22:24;;;;;;;2.70;1.80;;;5.40;77.80;;;;;;5038034;28;20250;-88
2023/01/16 04:24:51;;;;;;;3.40;1.70;;;5.40;79.20;;;;;;5029923;28;20203;-89
2023/01/16 04:27:18;;;;;;;2.07;1.70;;;5.40;78.70;;;;;;5038095;28;20231;-89
2023/01/16 04:29:44;;;;;;;3.43;1.77;;;5.40;78.30;;;;;;5039577;28;20216;-88
2023/01/16 04:32:09;;;;;;;3.20;1.77;;;5.30;79.20;;;;;;5043042;28;20223;-89
2023/01/16 04:34:35;;;;;;;2.67;1.80;;;5.40;79.20;;;;;;5043209;28;20527;-89
2023/01/16 04:37:00;;;;;;;2.03;1.67;;;5.40;78.30;;;;;;5044132;28;20205;-87
2023/01/16 04:39:26;;;;;;;2.20;1.63;;;5.40;78.50;;;;;;5049691;28;20239;-90
2023/01/16 04:41:52;;;;;;;3.27;1.87;;;5.50;78.60;;;;;;5051214;28;20192;-88
2023/01/16 04:44:18;;;;;;;3.40;2.23;;;5.40;78.10;;;;;;5036147;28;20189;-90
2023/01/16 04:46:44;;;;;;;2.67;2.10;;;5.40;79.10;;;;;;5035180;28;20280;-89
2023/01/16 04:49:10;;;;;;;2.70;2.10;;;5.30;80.50;;;;;;5042362;28;20217;-89
2023/01/16 04:51:36;;;;;;;2.10;1.90;;;5.30;79.20;;;;;;5034767;28;20663;-89
2023/01/16 04:54:05;;;;;;;3.97;1.73;;;5.30;79.70;;;;;;5031808;28;20215;-87
2023/01/16 04:56:31;;;;;;;3.10;1.80;;;5.40;78.90;;;;;;5036696;28;20206;-89
2023/01/16 04:58:56;;;;;;;3.50;2.20;;;5.40;79.20;;;;;;5027295;28;20251;-89
2023/01/16 05:01:22;;;;;;;2.20;1.60;;;5.40;80.60;;;;;;5045823;28;20181;-89
2023/01/16 05:03:48;;;;;;;2.23;1.60;;;5.50;80.90;;;;;;5039722;28;20276;-86
2023/01/16 05:06:14;;;;;;;2.60;1.83;;;5.60;80.00;;;;;;5039015;28;20209;-89
2023/01/16 05:08:40;;;;;;;2.30;1.97;;;5.70;80.20;;;;;;5039647;28;20177;-89
2023/01/16 05:11:05;;;;;;;3.10;1.70;;;5.50;80.80;;;;;;5040127;28;20263;-89
2023/01/16 05:13:31;;;;;;;2.70;1.93;;;5.60;81.90;;;;;;5040397;28;20176;-87
2023/01/16 05:15:57;;;;;;;6.53;1.90;;;5.60;82.00;;;;;;5047442;28;20188;-88
2023/01/16 05:18:23;;;;;;;6.13;2.23;;;5.70;83.50;;;;;;5060929;28;20188;-89
2023/01/16 05:20:48;;;;;;;2.47;1.70;;;5.60;83.80;;;;;;5090891;28;20709;-90
2023/01/16 05:23:14;;;;;;;3.87;2.07;;;5.60;82.50;;;;;;5072472;28;20225;-90
2023/01/16 05:25:40;;;;;;;2.87;1.70;;;5.70;81.90;;;;;;5061640;28;20203;-90
2023/01/16 05:28:05;;;;;;;4.60;3.80;;;5.70;82.10;;;;;;5043786;28;20243;-90
2023/01/16 05:30:31;;;;;;;1.93;1.77;;;5.80;76.80;;;;;;5038383;28;20176;-87
2023/01/16 05:32:57;;;;;;;3.57;1.90;;;5.80;78.20;;;;;;5037859;28;20235;-89
2023/01/16 05:35:24;;;;;;;2.50;1.87;;;5.70;78.60;;;;;;5037104;28;20181;-89
2023/01/16 05:37:50;;;;;;;1.80;1.70;;;5.70;78.60;;;;;;5048958;28;20200;-89
2023/01/16 05:40:15;;;;;;;1.70;1.60;;;5.70;79.80;;;;;;5039890;28;20215;-88
2023/01/16 05:42:47;;;;;;;5.20;2.00;;;5.60;80.60;;;;;;5036612;28;20436;-85
2023/01/16 05:45:13;;;;;;;2.53;1.87;;;5.60;82.10;;;;;;5036888;28;20662;-86
2023/01/16 05:47:39;;;;;;;2.40;1.67;;;5.60;82.70;;;;;;5036489;28;20217;-87
2023/01/16 05:50:06;;;;;;;4.50;1.90;;;5.60;82.90;;;;;;5037465;28;20201;-87
2023/01/16 05:52:32;;;;;;;3.77;2.70;;;5.70;81.70;;;;;;5036766;28;20232;-86
2023/01/16 05:54:57;;;;;;;4.07;3.40;;;5.60;81.20;;;;;;5037365;28;20307;-86
2023/01/16 05:57:23;;;;;;;3.20;2.90;;;5.70;81.90;;;;;;5041686;28;20207;-87
2023/01/16 05:59:50;;;;;;;4.00;2.43;;;5.70;81.90;;;;;;5037741;28;20299;-87
2023/01/16 06:02:17;;;;;;;3.03;2.50;;;5.70;83.40;;;;;;5039956;28;20180;-87
2023/01/16 06:04:42;;;;;;;2.50;2.30;;;5.70;84.00;;;;;;5038067;28;20558;-87
2023/01/16 06:07:08;;;;;;;4.33;3.70;;;5.70;83.60;;;;;;5035737;28;20713;-86
2023/01/16 06:09:34;;;;;;;6.07;3.03;;;5.60;82.80;;;;;;5038634;28;20177;-87
2023/01/16 06:11:59;;;;;;;4.10;3.30;;;5.60;80.90;;;;;;5039168;28;20249;-86
2023/01/16 06:14:25;;;;;;;6.23;3.97;;;5.60;81.40;;;;;;5040607;28;20231;-87
2023/01/16 06:16:50;;;;;;;6.10;3.60;;;5.50;80.40;;;;;;5051534;28;20286;-88
2023/01/16 06:19:16;;;;;;;7.97;3.40;;;5.40;80.50;;;;;;5044346;28;20217;-88
2023/01/16 06:21:42;;;;;;;3.10;2.33;;;5.40;81.40;;;;;;5051651;28;20185;-87
2023/01/16 06:24:07;;;;;;;2.30;2.10;;;5.40;80.30;;;;;;5040395;28;20241;-88
2023/01/16 06:26:33;;;;;;;3.10;2.20;;;5.30;81.30;;;;;;5040997;28;20281;-88
2023/01/16 06:28:58;;;;;;;2.40;1.77;;;5.40;81.90;;;;;;5042024;28;20184;-87
2023/01/16 06:31:24;;;;;;;3.77;2.10;;;5.30;81.90;;;;;;5036482;28;20268;-87
2023/01/16 06:33:50;;;;;;;2.93;2.00;;;5.30;82.30;;;;;;5034270;28;20200;-88
2023/01/16 06:36:15;;;;;;;2.97;1.87;;;5.20;81.80;;;;;;5039055;28;20200;-88
2023/01/16 06:38:41;;;;;;;2.90;2.40;;;5.30;83.40;;;;;;5036754;28;20192;-87
2023/01/16 06:41:07;;;;;;;2.23;2.03;;;5.40;83.70;;;;;;5036749;28;20276;-89
2023/01/16 06:43:32;;;;;;;3.57;2.47;;;5.30;83.90;;;;;;5037135;28;20204;-90
2023/01/16 06:45:58;;;;;;;4.93;2.13;;;5.20;84.50;;;;;;5036731;28;20192;-87
2023/01/16 06:48:24;;;;;;;2.10;1.70;;;5.30;83.90;;;;;;5043561;28;20200;-90
2023/01/16 06:50:49;;;;;;;2.60;1.90;;;5.20;83.20;;;;;;5039273;28;20193;-89
2023/01/16 06:53:15;;;;;;;2.67;2.00;;;5.20;84.20;;;;;;5034056;28;20189;-88
2023/01/16 06:55:41;;;;;;;5.50;2.30;;;5.10;84.60;;;;;;5035787;28;20196;-88
2023/01/16 06:58:08;;;;;;;2.00;1.80;;;5.10;82.60;;;;;;5035300;28;20244;-90
2023/01/16 07:00:34;;;;;;;1.83;1.70;;;5.00;83.50;;;;;;5031131;28;20761;-88
2023/01/16 07:03:01;;;;;;;1.80;1.63;;;5.00;84.80;;;;;;5035101;28;20222;-87
2023/01/16 07:05:28;;;;;;;5.03;1.90;;;5.00;85.60;;;;;;5033191;28;20208;-88
2023/01/16 07:07:54;;;;;;;2.00;1.63;;;5.00;85.20;;;;;;5036272;28;20281;-89
2023/01/16 07:10:20;;;;;;;3.93;2.00;;;5.10;86.60;;;;;;5036065;28;20275;-89
2023/01/16 07:12:47;;;;;;;4.53;2.13;;;5.20;87.30;;;;;;5037537;28;20302;-88
2023/01/16 07:23:32;;;;;;;3.40;1.93;;;5.20;83.60;;;;;;5042615;28;20167;-89
2023/01/16 07:26:01;;;;;;;2.47;1.90;;;5.10;83.10;;;;;;5061255;28;20165;-90
2023/01/16 07:28:28;;;;;;;2.30;1.93;;;5.10;83.00;;;;;;5053763;28;20335;-89
2023/01/16 07:30:56;;;;;;;2.80;2.60;;;4.90;83.10;;;;;;5052401;28;20589;-88
2023/01/16 07:33:22;;;;;;;4.30;2.37;;;4.90;85.40;;;;;;5049712;28;20185;-88
2023/01/16 07:35:48;;;;;;;2.70;2.00;;;4.90;84.60;;;;;;5039388;28;20184;-88
2023/01/16 07:38:14;;;;;;;3.03;2.03;;;4.80;84.80;;;;;;5039201;28;20223;-88
2023/01/16 07:40:39;;;;;;;2.83;2.10;;;4.80;84.80;;;;;;5038921;28;20183;-89
2023/01/16 07:43:06;;;;;;;2.30;2.00;;;5.00;84.50;;;;;;5038257;28;20184;-88
2023/01/16 07:45:31;;;;;;;2.97;2.17;;;4.90;84.70;;;;;;5038736;28;20580;-88
2023/01/16 07:47:57;;;;;;;3.63;2.10;;;4.90;84.10;;;;;;5040198;28;20239;-90
2023/01/16 07:50:23;;;;;;;2.30;1.90;;;5.00;83.90;;;;;;5039146;28;20193;-87
2023/01/16 07:52:48;;;;;;;3.17;2.50;;;5.00;82.50;;;;;;5040369;28;20217;-89
2023/01/16 07:55:16;;;;;;;3.10;1.93;;;5.00;84.50;;;;;;5045231;28;20268;-88
2023/01/16 07:57:42;;;;;;;2.13;1.70;;;5.00;82.10;;;;;;5059921;28;20569;-90
2023/01/16 08:00:12;;;;;;;4.33;2.40;;;5.10;82.80;;;;;;5058985;28;20184;-90
2023/01/16 08:02:39;;;;;;;2.80;2.60;;;5.10;83.60;;;;;;5026599;28;20678;-88
2023/01/16 08:05:05;;;;;;;2.90;2.30;;;5.20;83.40;;;;;;5039593;28;20181;-88
2023/01/16 08:07:31;;;;;;;5.37;2.77;;;5.20;83.30;;;;;;5036982;28;20578;-88
2023/01/16 08:09:57;;;;;;;3.63;2.67;;;5.20;82.70;;;;;;5037978;28;20184;-88
2023/01/16 08:12:22;;;;;;;2.37;2.10;;;5.30;82.60;;;;;;5038092;28;20720;-89
2023/01/16 08:14:48;;;;;;;4.27;2.30;;;5.30;82.10;;;;;;5047836;28;20184;-89
2023/01/16 08:17:14;;;;;;;2.83;2.10;;;5.30;82.00;;;;;;5059890;28;20278;-88
2023/01/16 08:19:40;;;;;;;4.07;2.20;;;5.30;81.20;;;;;;5050955;28;20226;-90
2023/01/16 08:22:06;;;;;;;3.87;2.90;;;5.30;80.60;;;;;;5059891;28;20202;-91
2023/01/16 08:24:32;;;;;;;4.70;3.13;;;5.20;81.70;;;;;;5075069;28;20187;-89
2023/01/16 08:26:57;;;;;;;3.83;2.97;;;5.20;81.80;;;;;;5059539;28;20231;-89
2023/01/16 08:29:24;;;;;;;4.30;3.73;;;5.30;82.60;;;;;;5065158;28;20183;-90
2023/01/16 08:31:49;;;;;;;3.40;2.80;;;5.30;81.40;;;;;;5061784;28;20222;-87
2023/01/16 08:34:16;;;;;;;5.37;3.20;;;5.40;79.90;;;;;;5056235;28;20176;-89
2023/01/16 08:36:42;;;;;;;3.13;2.33;;;5.40;80.10;;;;;;5058926;28;20203;-88
2023/01/16 08:39:11;;;;;;;1.80;1.60;;;5.50;78.00;;;;;;5062653;28;20271;-89
2023/01/16 08:52:45;;;;;;;1.50;1.40;;;6.20;70.00;;;;;;5042641;28;20569;-88
2023/01/16 08:55:10;;;;;;;1.00;1.00;;;6.20;69.40;;;;;;5047247;28;20204;-87
2023/01/16 08:57:36;;;;;;;1.40;1.30;;;6.40;68.00;;;;;;5061121;28;20207;-87
2023/01/16 09:00:04;;;;;;;2.03;1.50;;;6.60;63.50;;;;;;5060399;28;20684;-87
2023/01/16 09:02:34;;;;;;;1.33;1.33;;;6.80;62.40;;;;;;5061788;28;20185;-88
2023/01/16 09:04:59;;;;;;;1.30;1.30;;;6.80;62.30;;;;;;5048152;28;20658;-88
2023/01/16 09:07:25;;;;;;;1.40;1.30;;;7.00;59.40;;;;;;5042157;28;20284;-86
2023/01/16 09:09:51;;;;;;;1.30;1.20;;;7.20;58.20;;;;;;5042879;28;20200;-88
2023/01/16 09:15:01;;;;;;;1.63;1.47;;;7.30;56.50;;;;;;5044115;28;20299;-87
2023/01/16 09:17:27;;;;;;;1.43;1.20;;;7.30;55.50;;;;;;5046047;28;20196;-88
2023/01/16 09:19:53;;;;;;;1.43;1.33;;;7.30;55.20;;;;;;5049851;28;20320;-88
2023/01/16 09:22:19;;;;;;;1.60;1.50;;;7.40;56.20;;;;;;5051264;28;20204;-86
2023/01/16 09:24:45;;;;;;;1.47;1.47;;;7.40;57.00;;;;;;5054713;28;20527;-87
2023/01/16 09:27:12;;;;;;;1.73;1.63;;;7.40;56.00;;;;;;5060769;28;20200;-87
2023/01/16 09:29:39;;;;;;;2.17;1.43;;;7.40;55.30;;;;;;5041931;28;20264;-87
2023/01/16 09:32:08;;;;;;;1.30;1.20;;;7.40;55.10;;;;;;5037931;28;20651;-87
2023/01/16 09:34:37;;;;;;;1.63;1.50;;;7.50;54.80;;;;;;5036371;28;20203;-89
2023/01/16 09:37:04;;;;;;;2.73;2.20;;;7.40;55.50;;;;;;5036377;28;20203;-88
2023/01/16 09:39:30;;;;;;;1.43;1.33;;;7.30;57.40;;;;;;5036077;28;20200;-87
2023/01/16 09:45:10;;;;;;;2.63;1.53;;;7.00;63.30;;;;;;5057745;28;20289;-90
2023/01/16 09:47:37;;;;;;;1.40;1.30;;;6.80;64.50;;;;;;5089566;28;20246;-88
2023/01/16 09:50:12;;;;;;;1.83;1.50;;;6.80;65.90;;;;;;5059497;28;20188;-89
2023/01/16 09:58:35;;;;;;;1.80;1.70;;;6.80;67.60;;;;;;5063754;28;20183;-87
2023/01/16 10:01:04;;;;;;;3.30;1.97;;;6.80;64.50;;;;;;5065650;28;20179;-90
2023/01/16 10:03:30;;;;;;;3.80;2.27;;;6.80;65.90;;;;;;5064484;28;20184;-88
2023/01/16 10:05:59;;;;;;;2.80;2.50;;;6.80;67.90;;;;;;5056872;28;20204;-87
2023/01/16 10:08:52;;;;;;;3.43;2.20;;;6.80;66.40;;;;;;5043643;28;20189;-87
2023/01/16 10:11:28;;;;;;;2.00;1.80;;;6.80;66.20;;;;;;5028805;28;20273;-88
2023/01/16 10:14:05;;;;;;;2.20;2.00;;;6.80;66.10;;;;;;5024078;28;20174;-87
2023/01/16 10:16:43;;;;;;;3.90;1.50;;;6.80;66.10;;;;;;5023474;28;20293;-88
2023/01/16 10:19:23;;;;;;;1.20;1.17;;;6.90;67.00;;;;;;5039090;28;20176;-86
2023/01/16 10:22:07;;;;;;;1.20;1.20;;;7.20;65.60;;;;;;5052530;28;20181;-87
2023/01/16 10:25:04;;;;;;;3.20;1.27;;;7.30;67.20;;;;;;5076666;28;20649;-87
2023/01/16 10:27:40;;;;;;;1.40;1.30;;;7.40;66.70;;;;;;4988725;28;20711;-86
2023/01/16 10:30:19;;;;;;;1.10;1.10;;;7.40;67.50;;;;;;5043124;28;20183;-87
2023/01/16 10:32:53;;;;;;;1.30;1.20;;;7.30;68.50;;;;;;5044122;28;20196;-88
2023/01/16 10:35:29;;;;;;;1.40;1.20;;;7.40;66.60;;;;;;5077682;28;20185;-88
2023/01/16 10:38:06;;;;;;;0.97;0.97;;;7.30;68.10;;;;;;5043649;28;20189;-89
2023/01/16 10:40:32;;;;;;;0.93;0.93;;;7.40;67.10;;;;;;5047037;28;20199;-88
2023/01/16 10:51:19;;;;;;;3.23;1.70;;;7.20;69.30;;;;;;5077785;28;20211;-89
2023/01/16 10:53:45;;;;;;;2.07;1.40;;;7.10;70.20;;;;;;5070272;28;20188;-90
2023/01/16 10:56:11;;;;;;;1.60;1.50;;;7.00;70.50;;;;;;5064582;28;20204;-87
2023/01/16 10:58:40;;;;;;;1.50;1.40;;;7.00;70.20;;;;;;5059246;28;20630;-88
2023/01/16 11:01:14;;;;;;;1.70;1.60;;;7.00;72.00;;;;;;5060764;28;20184;-87
2023/01/16 11:03:52;;;;;;;1.60;1.50;;;7.00;71.70;;;;;;5059629;28;20199;-88
2023/01/16 11:06:29;;;;;;;2.27;1.20;;;7.00;71.80;;;;;;5058992;28;20196;-90
2023/01/16 11:09:04;;;;;;;2.70;1.67;;;7.00;72.60;;;;;;5059422;28;20168;-87
2023/01/16 11:20:19;;;;;;;1.13;1.03;;;7.30;72.00;;;;;;5026760;28;20250;-87
2023/01/16 11:22:50;;;;;;;1.07;1.07;;;7.30;71.00;;;;;;5060889;28;20183;-88
2023/01/16 11:25:20;;;;;;;1.00;1.00;;;7.30;71.30;;;;;;5060214;28;20172;-86
2023/01/16 11:27:48;;;;;;;1.00;1.00;;;7.30;71.30;;;;;;5061082;28;20196;-87
2023/01/16 11:30:27;;;;;;;1.20;1.10;;;7.30;72.50;;;;;;5053636;28;20189;-88
2023/01/16 11:32:55;;;;;;;1.00;1.00;;;7.30;72.00;;;;;;5042547;28;20228;-88
2023/01/16 11:35:35;;;;;;;1.00;1.00;;;7.30;73.80;;;;;;5042046;28;20173;-88
2023/01/16 11:38:02;;;;;;;1.20;1.10;;;7.40;72.60;;;;;;5042777;28;20201;-89
2023/01/16 11:40:35;;;;;;;1.17;0.80;;;7.40;72.10;;;;;;5056888;28;20164;-88
2023/01/16 11:46:02;;;;;;;0.90;0.90;;;7.50;72.70;;;;;;5052938;28;20214;-89
2023/01/16 11:48:50;;;;;;;1.00;1.00;;;7.50;72.20;;;;;;5044313;28;20254;-89
2023/01/16 11:51:21;;;;;;;1.00;0.90;;;7.60;72.60;;;;;;5042246;28;20327;-87
2023/01/16 11:53:50;;;;;;;1.10;1.10;;;7.60;72.30;;;;;;5040663;28;20191;-88
2023/01/16 11:56:39;;;;;;;1.00;1.00;;;7.60;73.10;;;;;;5039212;28;20268;-89
2023/01/16 11:59:18;;;;;;;1.13;1.13;;;7.60;73.60;;;;;;5032389;28;20212;-86
2023/01/16 12:04:33;;;;;;;1.20;1.10;;;7.70;72.40;;;;;;5037619;28;21036;-89
2023/01/16 12:07:19;;;;;;;1.13;1.13;;;8.00;72.00;;;;;;5030798;28;20263;-89
2023/01/16 12:09:51;;;;;;;0.87;0.87;;;8.10;70.70;;;;;;5034682;28;20193;-88
2023/01/16 12:16:13;;;;;;;0.90;0.90;;;8.10;71.30;;;;;;5031406;28;20312;-88
2023/01/16 12:18:43;;;;;;;1.00;1.00;;;8.60;68.80;;;;;;5033964;28;20566;-89
2023/01/16 12:21:24;;;;;;;1.10;1.10;;;8.70;66.90;;;;;;5034771;28;20203;-87
2023/01/16 12:23:55;;;;;;;1.00;1.00;;;8.70;68.50;;;;;;5033070;28;20192;-88
2023/01/16 12:26:34;;;;;;;1.00;1.00;;;9.00;65.80;;;;;;5033442;28;20208;-89
2023/01/16 12:29:38;;;;;;;1.07;1.07;;;9.20;64.60;;;;;;5034412;28;20727;-90
2023/01/16 12:32:07;;;;;;;0.93;0.93;;;9.60;63.60;;;;;;4971792;28;20229;-88
2023/01/16 12:34:41;;;;;;;1.10;1.10;;;9.40;63.60;;;;;;4973738;28;20672;-88
2023/01/16 12:37:21;;;;;;;2.30;1.20;;;9.40;63.80;;;;;;5004353;28;20848;-91
2023/01/16 12:39:59;;;;;;;0.83;0.83;;;9.10;63.80;;;;;;5033079;28;20188;-87
2023/01/16 12:45:38;;;;;;;1.10;1.10;;;9.10;63.40;;;;;;5034484;28;20196;-87
2023/01/16 12:48:40;;;;;;;0.90;0.90;;;8.80;63.40;;;;;;5038343;28;20208;-90
2023/01/16 12:51:06;;;;;;;2.20;1.00;;;8.80;64.20;;;;;;5044540;28;20197;-89
2023/01/16 12:53:40;;;;;;;0.80;0.80;;;8.70;63.80;;;;;;5047304;28;20200;-88
2023/01/16 12:56:24;;;;;;;1.00;1.00;;;8.80;64.40;;;;;;5040587;28;20219;-87
2023/01/16 12:59:15;;;;;;;1.10;1.10;;;9.00;62.00;;;;;;5033156;28;20396;-88
2023/01/16 13:01:45;;;;;;;0.80;0.80;;;9.10;60.60;;;;;;5036151;28;20311;-87
2023/01/16 13:04:35;;;;;;;1.20;1.20;;;9.30;61.40;;;;;;5036582;28;20280;-90
2023/01/16 13:07:02;;;;;;;0.97;0.93;;;9.10;61.30;;;;;;5027222;28;20668;-87
2023/01/16 13:09:38;;;;;;;1.10;1.00;;;9.00;62.50;;;;;;5033386;28;20193;-90
2023/01/16 13:14:54;;;;;;;1.50;1.23;;;9.00;61.90;;;;;;5033829;28;20208;-88
2023/01/16 13:17:25;;;;;;;1.30;1.20;;;9.00;60.90;;;;;;5055053;28;20258;-87
2023/01/16 13:19:52;;;;;;;1.20;1.20;;;8.80;61.80;;;;;;5032704;28;20271;-88
2023/01/16 13:22:34;;;;;;;1.10;1.10;;;8.70;61.80;;;;;;5033470;28;20244;-87
2023/01/16 13:25:14;;;;;;;2.83;1.20;;;8.70;60.60;;;;;;5036019;28;20185;-88
2023/01/16 13:27:45;;;;;;;0.90;0.90;;;8.60;61.40;;;;;;5035237;28;20220;-88
2023/01/16 13:30:17;;;;;;;1.00;1.00;;;8.70;61.30;;;;;;5033582;28;20212;-88
2023/01/16 13:32:56;;;;;;;0.90;0.90;;;8.70;61.70;;;;;;5033776;28;20235;-88
2023/01/16 13:35:44;;;;;;;0.93;0.93;;;8.70;62.30;;;;;;5036197;28;20230;-87
2023/01/16 13:38:36;;;;;;;0.83;0.83;;;8.60;61.40;;;;;;5037058;28;20201;-89
2023/01/16 13:41:15;;;;;;;1.83;1.17;;;8.60;61.90;;;;;;5037588;28;20231;-89
2023/01/16 13:46:35;;;;;;;1.00;1.00;;;8.50;61.70;;;;;;5038466;28;20228;-89
2023/01/16 13:49:03;;;;;;;1.00;1.00;;;8.50;63.00;;;;;;5036687;28;20219;-87
2023/01/16 13:51:29;;;;;;;1.43;1.33;;;8.40;63.20;;;;;;5035890;28;20270;-89
2023/01/16 13:54:02;;;;;;;0.77;0.77;;;8.40;63.50;;;;;;5037186;28;20181;-86
2023/01/16 13:56:30;;;;;;;1.10;1.10;;;8.40;63.60;;;;;;5034077;28;20201;-88
2023/01/16 13:59:11;;;;;;;1.30;1.20;;;8.40;63.70;;;;;;5034346;28;20200;-89
2023/01/16 14:01:55;;;;;;;1.20;1.20;;;8.40;62.90;;;;;;5034923;28;20187;-89
2023/01/16 14:04:21;;;;;;;1.80;1.17;;;8.30;64.20;;;;;;5033626;28;20220;-88
2023/01/16 14:09:03;;;;;;;1.17;1.10;;;8.30;64.40;;;;;;5034446;28;20208;-89
2023/01/16 14:10:08;;;;;;;2.33;1.20;;;8.30;64.40;;;;;;5037105;28;20197;-89
2023/01/16 14:12:35;;;;;;;0.90;0.90;;;8.30;63.90;;;;;;5037192;28;20295;-88
2023/01/16 14:18:45;;;;;;;1.33;1.10;;;8.20;65.20;;;;;;5038493;28;20262;-88
2023/01/16 14:21:18;;;;;;;1.00;1.00;;;8.20;65.60;;;;;;5033044;28;20185;-89
2023/01/16 14:24:01;;;;;;;1.10;1.00;;;8.20;65.60;;;;;;5035931;28;20220;-87
2023/01/16 14:26:36;;;;;;;1.13;1.13;;;8.20;66.40;;;;;;5032599;28;20223;-89
2023/01/16 14:29:18;;;;;;;1.00;1.00;;;8.20;66.30;;;;;;5032930;28;20202;-89